createdAt,value
2023-03-06T00:01:23.997Z,93.00
2023-03-06T00:03:52.016Z,92.40
2023-03-06T00:06:21.529Z,91.80
2023-03-06T00:08:49.446Z,92.30
2023-03-06T00:11:17.530Z,92.80
2023-03-06T00:13:47.528Z,93.00
2023-03-06T00:16:15.558Z,92.30
2023-03-06T00:18:44.066Z,92.10
2023-03-06T00:21:12.184Z,92.30
2023-03-06T00:23:42.309Z,92.30
2023-03-06T00:26:10.857Z,92.30
2023-03-06T00:28:40.964Z,92.30
2023-03-06T00:31:10.568Z,92.90
2023-03-06T00:33:43.372Z,92.00
2023-03-06T00:36:12.126Z,92.30
2023-03-06T00:38:43.504Z,92.00
2023-03-06T00:41:12.749Z,92.00
2023-03-06T00:43:41.105Z,91.40
2023-03-06T00:46:09.634Z,91.30
2023-03-06T00:48:37.884Z,92.00
2023-03-06T00:51:06.967Z,91.30
2023-03-06T00:53:34.962Z,91.80
2023-03-06T00:56:04.426Z,91.30
2023-03-06T00:58:32.365Z,92.60
2023-03-06T01:01:02.454Z,93.00
2023-03-06T01:03:30.539Z,92.20
2023-03-06T01:05:58.644Z,91.90
2023-03-06T01:08:26.736Z,92.10
2023-03-06T01:10:57.624Z,91.80
2023-03-06T01:13:27.078Z,92.60
2023-03-06T01:15:55.124Z,92.90
2023-03-06T01:18:24.663Z,92.90
2023-03-06T01:20:52.580Z,92.40
2023-03-06T01:23:23.041Z,92.90
2023-03-06T01:25:51.040Z,92.70
2023-03-06T01:28:20.774Z,92.20
2023-03-06T01:30:50.338Z,92.40
2023-03-06T01:33:20.042Z,92.80
2023-03-06T01:35:48.329Z,93.10
2023-03-06T01:38:16.706Z,92.30
2023-03-06T01:40:44.838Z,92.30
2023-03-06T01:43:29.575Z,92.20
2023-03-06T01:46:26.749Z,92.30
2023-03-06T01:48:57.576Z,91.90
2023-03-06T01:51:28.186Z,91.60
2023-03-06T01:53:58.962Z,91.40
2023-03-06T01:56:27.143Z,91.70
2023-03-06T01:58:55.601Z,90.80
2023-03-06T02:01:26.430Z,91.30
2023-03-06T02:03:55.774Z,91.80
2023-03-06T02:06:24.057Z,91.90
2023-03-06T02:08:53.669Z,91.50
2023-03-06T02:11:26.268Z,92.30
2023-03-06T02:13:55.738Z,92.00
2023-03-06T02:16:30.715Z,92.10
2023-03-06T02:19:01.221Z,91.70
2023-03-06T02:21:35.181Z,91.60
2023-03-06T02:24:23.554Z,91.10
2023-03-06T02:26:54.255Z,91.70
2023-03-06T02:29:26.831Z,92.40
2023-03-06T02:31:56.755Z,92.40
2023-03-06T02:34:54.506Z,91.90
2023-03-06T02:37:28.898Z,91.70
2023-03-06T02:40:04.037Z,91.00
2023-03-06T02:42:33.534Z,91.60
2023-03-06T02:45:04.242Z,91.10
2023-03-06T02:47:32.823Z,91.80
2023-03-06T02:50:00.865Z,92.10
2023-03-06T02:52:30.569Z,92.00
2023-03-06T02:54:58.576Z,91.70
2023-03-06T02:57:26.645Z,92.10
2023-03-06T02:59:57.765Z,91.70
2023-03-06T03:02:28.656Z,91.30
2023-03-06T03:04:56.739Z,91.60
2023-03-06T03:07:24.782Z,91.60
2023-03-06T03:09:52.846Z,91.20
2023-03-06T03:12:22.349Z,91.00
2023-03-06T03:14:50.418Z,91.30
2023-03-06T03:17:19.732Z,91.30
2023-03-06T03:19:47.833Z,91.10
2023-03-06T03:22:16.150Z,90.60
2023-03-06T03:24:45.053Z,90.50
2023-03-06T03:27:13.502Z,91.00
2023-03-06T03:29:42.604Z,90.70
2023-03-06T03:32:11.019Z,90.50
2023-03-06T03:34:41.628Z,90.80
2023-03-06T03:37:09.856Z,90.70
2023-03-06T03:39:38.866Z,91.30
2023-03-06T03:42:09.048Z,90.90
2023-03-06T03:44:37.193Z,90.80
2023-03-06T03:47:07.782Z,91.10
2023-03-06T03:49:37.941Z,90.60
2023-03-06T03:52:15.174Z,90.50
2023-03-06T03:54:43.213Z,90.70
2023-03-06T03:57:11.247Z,90.30
2023-03-06T03:59:43.375Z,91.10
2023-03-06T04:02:31.672Z,91.00
2023-03-06T04:05:12.560Z,91.10
2023-03-06T04:07:42.316Z,91.50
2023-03-06T04:10:14.042Z,91.20
2023-03-06T04:12:42.635Z,91.10
2023-03-06T04:15:12.650Z,91.20
2023-03-06T04:17:41.124Z,90.90
2023-03-06T04:20:14.752Z,90.60
2023-03-06T04:22:44.562Z,90.10
2023-03-06T04:25:13.614Z,90.60
2023-03-06T04:27:41.792Z,91.00
2023-03-06T04:30:11.186Z,90.40
2023-03-06T04:32:39.239Z,90.70
2023-03-06T04:35:07.921Z,90.70
2023-03-06T04:37:45.406Z,89.90
2023-03-06T04:40:19.682Z,90.70
2023-03-06T04:42:47.886Z,91.10
2023-03-06T04:45:16.338Z,90.50
2023-03-06T04:47:44.577Z,90.30
2023-03-06T04:50:13.187Z,90.40
2023-03-06T04:52:41.666Z,90.90
2023-03-06T04:55:13.679Z,91.00
2023-03-06T04:57:44.157Z,90.80
2023-03-06T05:00:16.287Z,91.30
2023-03-06T05:02:45.081Z,90.80
2023-03-06T05:05:14.131Z,90.80
2023-03-06T05:07:42.883Z,91.20
2023-03-06T05:10:18.347Z,91.40
2023-03-06T05:12:46.119Z,91.30
2023-03-06T05:15:14.979Z,91.10
2023-03-06T05:17:43.139Z,90.90
2023-03-06T05:20:13.119Z,90.90
2023-03-06T05:22:44.507Z,90.70
2023-03-06T05:25:15.693Z,90.40
2023-03-06T05:27:43.809Z,89.90
2023-03-06T05:30:14.915Z,90.60
2023-03-06T05:32:42.972Z,90.70
2023-03-06T05:35:18.320Z,90.60
2023-03-06T05:37:46.698Z,89.70
2023-03-06T05:40:16.991Z,90.10
2023-03-06T05:42:47.074Z,90.10
2023-03-06T05:45:15.081Z,90.10
2023-03-06T05:47:43.048Z,90.20
2023-03-06T05:50:13.880Z,90.60
2023-03-06T05:52:44.195Z,90.70
2023-03-06T05:55:18.307Z,91.20
2023-03-06T05:57:46.611Z,91.10
2023-03-06T06:00:16.175Z,91.20
2023-03-06T06:02:46.264Z,90.90
2023-03-06T06:05:14.896Z,91.00
2023-03-06T06:07:43.160Z,91.00
2023-03-06T06:10:15.426Z,91.00
2023-03-06T06:12:44.825Z,90.60
2023-03-06T06:15:12.939Z,90.30
2023-03-06T06:17:40.962Z,90.60
2023-03-06T06:20:13.067Z,90.60
2023-03-06T06:22:43.381Z,90.30
2023-03-06T06:25:11.483Z,90.10
2023-03-06T06:27:39.906Z,90.30
2023-03-06T06:30:12.585Z,89.80
2023-03-06T06:32:40.997Z,89.70
2023-03-06T06:35:09.855Z,89.60
2023-03-06T06:37:40.022Z,89.70
2023-03-06T06:40:10.190Z,90.30
2023-03-06T06:42:40.385Z,89.30
2023-03-06T06:45:11.687Z,88.80
2023-03-06T06:47:41.592Z,89.00
2023-03-06T06:50:12.464Z,89.40
2023-03-06T06:52:41.586Z,90.00
2023-03-06T06:55:10.830Z,89.30
2023-03-06T06:57:39.020Z,88.90
2023-03-06T07:00:10.682Z,89.80
2023-03-06T07:02:38.753Z,90.00
2023-03-06T07:05:07.837Z,89.90
2023-03-06T07:07:40.665Z,90.40
2023-03-06T07:10:13.290Z,90.40
2023-03-06T07:12:41.292Z,89.90
2023-03-06T07:15:18.308Z,89.80
2023-03-06T07:17:48.853Z,89.90
2023-03-06T07:20:18.616Z,90.30
2023-03-06T07:22:51.250Z,90.10
2023-03-06T07:25:20.650Z,90.00
2023-03-06T07:27:53.261Z,90.00
2023-03-06T07:30:24.135Z,90.00
2023-03-06T07:32:54.882Z,89.80
2023-03-06T07:35:24.081Z,89.90
2023-03-06T07:37:55.156Z,89.40
2023-03-06T07:40:23.746Z,89.40
2023-03-06T07:42:54.708Z,89.20
2023-03-06T07:45:32.121Z,89.20
2023-03-06T07:48:00.103Z,89.00
2023-03-06T07:50:28.536Z,89.20
2023-03-06T07:52:58.129Z,89.10
2023-03-06T07:55:30.803Z,89.20
2023-03-06T07:57:58.848Z,88.70
2023-03-06T08:00:28.238Z,88.90
2023-03-06T08:02:58.453Z,89.40
2023-03-06T08:05:26.370Z,88.20
2023-03-06T08:07:54.395Z,88.10
2023-03-06T08:10:22.671Z,87.70
2023-03-06T08:12:50.709Z,88.10
2023-03-06T08:15:18.948Z,87.90
2023-03-06T08:17:51.578Z,87.50
2023-03-06T08:20:19.673Z,87.10
2023-03-06T08:22:48.904Z,87.80
2023-03-06T08:25:16.931Z,88.00
2023-03-06T08:27:46.760Z,87.80
2023-03-06T08:30:15.408Z,88.00
2023-03-06T08:32:43.640Z,87.40
2023-03-06T08:35:13.317Z,87.90
2023-03-06T08:37:41.421Z,87.40
2023-03-06T08:40:10.951Z,88.10
2023-03-06T08:42:40.865Z,88.30
2023-03-06T08:45:10.136Z,88.30
2023-03-06T08:47:41.176Z,88.50
2023-03-06T08:50:10.707Z,88.60
2023-03-06T08:52:41.681Z,87.60
2023-03-06T08:55:10.605Z,87.00
2023-03-06T08:57:39.371Z,87.00
2023-03-06T09:00:12.754Z,87.40
2023-03-06T09:02:40.751Z,87.30
2023-03-06T09:05:10.283Z,87.20
2023-03-06T09:07:39.610Z,88.00
2023-03-06T09:10:08.768Z,87.40
2023-03-06T09:12:49.447Z,87.30
2023-03-06T09:15:19.708Z,87.20
2023-03-06T09:17:48.165Z,86.50
2023-03-06T09:20:16.566Z,87.00
2023-03-06T09:22:46.537Z,87.10
2023-03-06T09:25:20.075Z,86.60
2023-03-06T09:27:55.456Z,87.00
2023-03-06T09:30:30.109Z,87.00
2023-03-06T09:32:58.270Z,86.80
2023-03-06T09:35:26.478Z,86.70
2023-03-06T09:37:55.893Z,87.20
2023-03-06T09:40:34.667Z,87.70
2023-03-06T09:43:02.782Z,87.50
2023-03-06T09:45:37.271Z,87.10
2023-03-06T09:48:14.491Z,86.70
2023-03-06T09:50:47.041Z,87.00
2023-03-06T09:53:32.116Z,87.10
2023-03-06T09:56:04.130Z,87.40
2023-03-06T09:58:38.817Z,87.30
2023-03-06T10:01:15.868Z,87.70
2023-03-06T10:03:50.578Z,88.40
2023-03-06T10:06:25.095Z,89.10
2023-03-06T10:09:00.826Z,90.00
2023-03-06T10:11:36.357Z,89.90
2023-03-06T10:14:11.969Z,90.70
2023-03-06T10:16:41.049Z,90.50
2023-03-06T10:19:15.722Z,90.50
2023-03-06T10:21:55.167Z,90.20
2023-03-06T10:24:37.134Z,90.00
2023-03-06T10:27:19.249Z,90.20
2023-03-06T10:30:02.694Z,89.90
2023-03-06T10:32:48.593Z,89.70
2023-03-06T10:35:20.353Z,89.90
2023-03-06T10:37:51.220Z,90.00
2023-03-06T10:40:23.269Z,89.90
2023-03-06T10:43:09.529Z,89.60
2023-03-06T10:45:52.584Z,89.50
2023-03-06T10:48:23.267Z,89.50
2023-03-06T10:50:51.503Z,89.90
2023-03-06T10:53:25.080Z,89.90
2023-03-06T10:55:57.270Z,89.80
2023-03-06T10:58:27.878Z,90.30
2023-03-06T11:01:08.096Z,89.30
2023-03-06T11:03:36.915Z,89.00
2023-03-06T11:06:13.037Z,88.60
2023-03-06T11:08:43.318Z,88.20
2023-03-06T11:11:18.563Z,88.30
2023-03-06T11:13:58.743Z,88.70
2023-03-06T11:16:32.027Z,88.30
2023-03-06T11:19:03.916Z,87.80
2023-03-06T11:21:34.227Z,87.00
2023-03-06T11:24:06.886Z,86.80
2023-03-06T11:26:44.748Z,87.20
2023-03-06T11:29:38.709Z,86.80
2023-03-06T11:32:13.345Z,86.60
2023-03-06T11:34:50.142Z,87.00
2023-03-06T11:37:26.748Z,87.70
2023-03-06T11:40:04.640Z,87.00
2023-03-06T11:42:39.082Z,87.30
2023-03-06T11:45:22.610Z,86.00
2023-03-06T11:47:58.815Z,86.50
2023-03-06T11:50:32.686Z,87.10
2023-03-06T11:53:02.519Z,85.80
2023-03-06T11:55:41.464Z,87.00
2023-03-06T11:58:49.339Z,87.40
2023-03-06T12:01:26.077Z,87.60
2023-03-06T12:04:29.931Z,87.50
2023-03-06T12:07:07.524Z,86.40
2023-03-06T12:09:45.384Z,86.80
2023-03-06T12:12:35.884Z,85.80
2023-03-06T12:15:28.118Z,86.10
2023-03-06T12:18:09.124Z,85.70
2023-03-06T12:20:51.711Z,85.80
2023-03-06T12:23:40.516Z,85.30
2023-03-06T12:26:29.156Z,86.30
2023-03-06T12:29:09.569Z,85.80
2023-03-06T12:31:50.512Z,86.00
2023-03-06T12:34:36.878Z,84.20
2023-03-06T12:37:16.640Z,84.00
2023-03-06T12:39:58.167Z,83.10
2023-03-06T12:42:42.780Z,84.00
2023-03-06T12:45:31.708Z,83.20
2023-03-06T12:48:02.753Z,79.90
2023-03-06T12:50:33.710Z,80.40
2023-03-06T12:53:05.150Z,80.50
2023-03-06T12:55:41.071Z,79.60
2023-03-06T12:58:48.223Z,79.30
2023-03-06T13:01:42.790Z,78.50
2023-03-06T13:04:32.513Z,78.90
2023-03-06T13:07:22.622Z,78.10
2023-03-06T13:10:06.722Z,77.70
2023-03-06T13:12:51.127Z,76.80
2023-03-06T13:15:41.712Z,77.90
2023-03-06T13:18:55.597Z,77.20
2023-03-06T13:24:39.997Z,75.70
2023-03-06T13:27:12.171Z,76.50
2023-03-06T13:30:06.513Z,77.00
2023-03-06T13:32:36.763Z,77.70
2023-03-06T13:35:40.372Z,79.60
2023-03-06T13:38:33.101Z,80.20
2023-03-06T13:41:37.431Z,81.00
2023-03-06T13:44:39.421Z,82.10
2023-03-06T13:47:22.077Z,83.10
2023-03-06T13:49:50.325Z,83.10
2023-03-06T13:52:23.967Z,82.40
2023-03-06T13:55:01.729Z,82.30
2023-03-06T13:57:47.111Z,82.70
2023-03-06T14:00:53.736Z,82.30
2023-03-06T14:04:04.046Z,80.10
2023-03-06T14:06:53.222Z,79.60
2023-03-06T14:09:28.975Z,79.70
2023-03-06T14:12:00.711Z,79.00
2023-03-06T14:14:36.539Z,79.40
2023-03-06T14:17:08.869Z,80.30
2023-03-06T14:19:41.906Z,80.60
2023-03-06T14:22:21.964Z,80.30
2023-03-06T14:24:59.634Z,79.60
2023-03-06T14:27:42.941Z,79.40
2023-03-06T14:30:20.927Z,78.70
2023-03-06T14:32:50.832Z,79.00
2023-03-06T14:35:27.999Z,79.20
2023-03-06T14:37:59.983Z,79.30
2023-03-06T14:40:32.581Z,78.90
2023-03-06T14:43:18.663Z,78.30
2023-03-06T14:45:51.229Z,78.80
2023-03-06T14:48:19.941Z,78.90
2023-03-06T14:50:50.805Z,78.60
2023-03-06T14:53:22.192Z,78.50
2023-03-06T14:55:53.229Z,78.60
2023-03-06T14:58:26.860Z,78.20
2023-03-06T15:01:01.221Z,78.00
2023-03-06T15:03:36.875Z,78.60
2023-03-06T15:06:06.151Z,78.60
2023-03-06T15:08:39.064Z,78.50
2023-03-06T15:11:08.488Z,78.50
2023-03-06T15:13:37.360Z,77.80
2023-03-06T15:16:08.884Z,77.50
2023-03-06T15:18:39.183Z,78.80
2023-03-06T15:21:10.015Z,79.60
2023-03-06T15:23:40.073Z,80.00
2023-03-06T15:26:29.012Z,78.70
2023-03-06T15:29:08.932Z,78.30
2023-03-06T15:31:41.159Z,79.20
2023-03-06T15:34:23.241Z,79.40
2023-03-06T15:36:55.016Z,79.50
2023-03-06T15:39:35.066Z,79.50
2023-03-06T15:42:18.050Z,79.10
2023-03-06T15:44:49.939Z,79.40
2023-03-06T15:47:19.525Z,79.80
2023-03-06T15:49:51.742Z,79.70
2023-03-06T15:52:20.185Z,79.30
2023-03-06T15:54:48.112Z,79.20
2023-03-06T15:57:22.709Z,78.80
2023-03-06T15:59:51.239Z,79.00
2023-03-06T16:02:22.410Z,79.00
2023-03-06T16:04:51.119Z,78.60
2023-03-06T16:07:20.600Z,78.80
2023-03-06T16:09:48.635Z,78.40
2023-03-06T16:12:18.642Z,78.70
2023-03-06T16:14:47.789Z,78.20
2023-03-06T16:17:17.329Z,78.00
2023-03-06T16:19:46.810Z,77.90
2023-03-06T16:22:16.115Z,78.20
2023-03-06T16:24:44.305Z,78.40
2023-03-06T16:27:18.540Z,79.20
2023-03-06T16:29:46.669Z,79.80
2023-03-06T16:32:14.918Z,80.20
2023-03-06T16:34:42.970Z,80.60
2023-03-06T16:37:13.925Z,81.00
2023-03-06T16:39:41.952Z,81.40
2023-03-06T16:42:10.039Z,81.50
2023-03-06T16:44:38.068Z,81.50
2023-03-06T16:47:06.318Z,81.40
2023-03-06T16:49:34.413Z,81.60
2023-03-06T16:52:04.521Z,82.10
2023-03-06T16:54:33.849Z,82.00
2023-03-06T16:57:04.758Z,81.90
2023-03-06T16:59:37.575Z,81.70
2023-03-06T17:02:05.867Z,81.80
2023-03-06T17:04:33.921Z,81.50
2023-03-06T17:07:01.885Z,81.20
2023-03-06T17:09:31.023Z,81.10
2023-03-06T17:12:00.387Z,80.50
2023-03-06T17:14:28.403Z,81.00
2023-03-06T17:16:59.072Z,80.60
2023-03-06T17:19:27.064Z,81.10
2023-03-06T17:21:55.573Z,81.00
2023-03-06T17:24:23.627Z,80.90
2023-03-06T17:26:51.608Z,81.00
2023-03-06T17:29:23.679Z,80.60
2023-03-06T17:31:52.008Z,80.70
2023-03-06T17:34:19.910Z,80.60
2023-03-06T17:36:47.915Z,80.30
2023-03-06T17:39:16.112Z,80.40
2023-03-06T17:41:46.275Z,80.50
2023-03-06T17:44:16.413Z,80.40
2023-03-06T17:46:48.366Z,80.20
2023-03-06T17:49:19.341Z,80.40
2023-03-06T17:51:47.264Z,80.70
2023-03-06T17:54:15.264Z,80.80
2023-03-06T17:56:43.341Z,80.80
2023-03-06T17:59:15.625Z,80.90
2023-03-06T18:01:45.661Z,80.60
2023-03-06T18:04:13.621Z,80.80
2023-03-06T18:06:42.046Z,80.90
2023-03-06T18:09:10.162Z,81.00
2023-03-06T18:11:38.300Z,80.80
2023-03-06T18:14:06.408Z,80.90
2023-03-06T18:16:34.791Z,80.90
2023-03-06T18:19:04.280Z,80.70
2023-03-06T18:21:32.346Z,80.50
2023-03-06T18:24:00.282Z,80.30
2023-03-06T18:26:29.549Z,80.20
2023-03-06T18:29:01.308Z,80.40
2023-03-06T18:31:34.159Z,80.60
2023-03-06T18:34:06.446Z,80.30
2023-03-06T18:36:35.676Z,80.30
2023-03-06T18:39:04.797Z,80.30
2023-03-06T18:41:36.395Z,80.40
2023-03-06T18:44:06.281Z,80.30
2023-03-06T18:46:36.859Z,79.60
2023-03-06T18:49:07.016Z,79.90
2023-03-06T18:51:35.473Z,80.10
2023-03-06T18:54:04.965Z,79.90
2023-03-06T18:56:33.675Z,79.70
2023-03-06T18:59:03.179Z,79.90
2023-03-06T19:01:31.762Z,79.50
2023-03-06T19:04:01.902Z,80.00
2023-03-06T19:06:31.665Z,79.70
2023-03-06T19:09:01.484Z,79.60
2023-03-06T19:11:33.425Z,79.50
2023-03-06T19:14:02.198Z,79.00
2023-03-06T19:16:31.501Z,79.20
2023-03-06T19:19:00.600Z,79.40
2023-03-06T19:21:29.616Z,79.80
2023-03-06T19:23:59.738Z,80.10
2023-03-06T19:26:28.061Z,79.80
2023-03-06T19:28:56.099Z,79.20
2023-03-06T19:31:28.721Z,79.30
2023-03-06T19:33:57.660Z,79.80
2023-03-06T19:36:28.718Z,78.70
2023-03-06T19:38:59.616Z,79.60
2023-03-06T19:41:28.849Z,79.10
2023-03-06T19:43:58.829Z,79.00
2023-03-06T19:46:27.741Z,79.10
2023-03-06T19:48:56.983Z,78.50
2023-03-06T19:51:28.476Z,78.50
2023-03-06T19:53:58.680Z,78.20
2023-03-06T19:56:28.775Z,77.60
2023-03-06T19:58:57.396Z,77.50
2023-03-06T20:01:27.897Z,76.90
2023-03-06T20:03:58.659Z,76.80
2023-03-06T20:06:33.357Z,76.60
2023-03-06T20:09:05.396Z,76.60
2023-03-06T20:11:33.533Z,76.80
2023-03-06T20:14:07.423Z,77.10
2023-03-06T20:16:39.723Z,78.00
2023-03-06T20:19:08.933Z,78.70
2023-03-06T20:21:37.765Z,79.10
2023-03-06T20:24:08.922Z,80.40
2023-03-06T20:26:38.488Z,82.00
2023-03-06T20:29:06.602Z,83.30
2023-03-06T20:31:34.760Z,84.00
2023-03-06T20:34:03.585Z,83.30
2023-03-06T20:36:33.020Z,83.80
2023-03-06T20:39:01.975Z,83.90
2023-03-06T20:41:32.941Z,84.00
2023-03-06T20:44:02.375Z,83.40
2023-03-06T20:46:30.918Z,84.00
2023-03-06T20:48:59.536Z,84.80
2023-03-06T20:51:28.879Z,85.10
2023-03-06T20:53:57.246Z,85.70
2023-03-06T20:56:26.959Z,85.40
2023-03-06T20:59:00.134Z,85.30
2023-03-06T21:01:30.575Z,85.40
2023-03-06T21:03:59.518Z,85.70
2023-03-06T21:06:29.126Z,85.50
2023-03-06T21:08:57.818Z,85.40
2023-03-06T21:11:26.203Z,86.30
2023-03-06T21:13:54.492Z,86.30
2023-03-06T21:16:25.765Z,86.70
2023-03-06T21:18:56.176Z,87.00
2023-03-06T21:21:26.732Z,87.70
2023-03-06T21:23:55.203Z,88.80
2023-03-06T21:26:24.880Z,89.30
2023-03-06T21:28:53.328Z,90.00
2023-03-06T21:31:23.700Z,89.60
2023-03-06T21:33:52.228Z,88.80
2023-03-06T21:36:22.484Z,89.20
2023-03-06T21:38:51.690Z,89.20
2023-03-06T21:41:24.062Z,89.20
2023-03-06T21:43:57.109Z,89.10
2023-03-06T21:46:30.012Z,89.70
2023-03-06T21:49:00.333Z,90.80
2023-03-06T21:51:28.805Z,91.00
2023-03-06T21:53:57.057Z,90.80
2023-03-06T21:56:28.412Z,90.70
2023-03-06T21:58:58.169Z,90.70
2023-03-06T22:01:30.607Z,90.50
2023-03-06T22:03:59.885Z,91.00
2023-03-06T22:06:32.131Z,92.10
2023-03-06T22:09:01.677Z,92.40
2023-03-06T22:11:31.191Z,92.80
2023-03-06T22:13:59.296Z,92.70
2023-03-06T22:16:28.721Z,92.60
2023-03-06T22:18:56.755Z,92.20
2023-03-06T22:21:25.182Z,91.90
2023-03-06T22:23:54.724Z,92.60
2023-03-06T22:26:22.839Z,92.40
2023-03-06T22:28:53.690Z,92.10
2023-03-06T22:31:26.482Z,91.70
2023-03-06T22:33:57.715Z,92.60
2023-03-06T22:36:26.505Z,93.40
2023-03-06T22:38:56.386Z,92.60
2023-03-06T22:41:25.700Z,93.10
2023-03-06T22:43:55.768Z,92.40
2023-03-06T22:46:23.964Z,92.00
2023-03-06T22:48:52.077Z,92.70
2023-03-06T22:51:22.530Z,93.20
2023-03-06T22:53:50.693Z,93.20
2023-03-06T22:56:20.545Z,93.70
2023-03-06T22:58:50.227Z,93.20
2023-03-06T23:01:20.388Z,92.40
2023-03-06T23:03:50.289Z,93.30
2023-03-06T23:06:21.809Z,93.20
2023-03-06T23:08:51.935Z,93.00
2023-03-06T23:11:20.755Z,93.20
2023-03-06T23:14:07.647Z,92.70
2023-03-06T23:16:54.109Z,93.20
2023-03-06T23:19:42.174Z,94.20
2023-03-06T23:22:30.252Z,93.10
2023-03-06T23:25:16.854Z,94.10
2023-03-06T23:27:44.896Z,93.40
2023-03-06T23:30:13.997Z,94.00
2023-03-06T23:32:43.374Z,94.10
2023-03-06T23:35:12.854Z,93.30
2023-03-06T23:37:42.996Z,93.80
2023-03-06T23:40:12.082Z,93.20
2023-03-06T23:42:40.329Z,93.50
2023-03-06T23:45:09.813Z,93.60
2023-03-06T23:47:37.840Z,94.10
2023-03-06T23:50:06.524Z,93.80
2023-03-06T23:52:34.642Z,93.70
2023-03-06T23:55:04.208Z,94.00
2023-03-06T23:57:32.307Z,94.40
